Time;durP1;ratioP1;P1;durP2;ratioP2;P2;SDS_P1;SDS_P2;PMS_P1;PMS_P2;Temp;Humidity;BMP_temperature;BMP_pressure;BME280_temperature;BME280_humidity;BME280_pressure;Samples;Min_cycle;Max_cycle;Signal;HPM_P1;HPM_P2
2022/05/20 00:01:03;;;;;;;4.47;1.80;;;;;;;14.57;100.00;102247.78;5005642;28;20432;-74
2022/05/20 00:03:29;;;;;;;3.20;1.80;;;;;;;14.70;100.00;102239.84;5002371;28;20467;-74
2022/05/20 00:05:55;;;;;;;3.57;1.57;;;;;;;14.35;100.00;102169.44;5002710;28;20481;-73
2022/05/20 00:08:20;;;;;;;2.30;1.40;;;;;;;13.76;100.00;102124.56;5002416;28;20439;-74
2022/05/20 00:10:46;;;;;;;4.67;2.00;;;;;;;14.76;100.00;102222.88;5000787;28;20568;-74
2022/05/20 00:13:12;;;;;;;3.73;1.70;;;;;;;14.34;100.00;102183.94;5001326;28;20291;-74
2022/05/20 00:15:38;;;;;;;5.77;2.23;;;;;;;14.71;100.00;102232.56;5001930;28;20621;-73
2022/05/20 00:18:03;;;;;;;7.63;2.40;;;;;;;14.29;100.00;102137.84;5004625;28;20719;-74
2022/05/20 00:20:29;;;;;;;5.73;1.87;;;;;;;14.01;100.00;102135.84;5003598;28;20535;-73
2022/05/20 00:22:55;;;;;;;9.97;2.33;;;;;;;14.84;100.00;102229.97;4991850;28;20702;-72
2022/05/20 00:28:07;;;;;;;3.93;2.07;;;;;;;14.42;100.00;102235.13;4999516;28;20670;-73
2022/05/20 00:30:34;;;;;;;3.73;2.50;;;;;;;14.02;100.00;102150.19;5000575;28;20980;-74
2022/05/20 00:32:59;;;;;;;6.90;2.53;;;;;;;14.28;100.00;102240.56;5002955;28;20204;-74
2022/05/20 00:35:26;;;;;;;5.43;2.47;;;;;;;14.28;100.00;102249.50;4997218;28;20462;-74
2022/05/20 00:37:52;;;;;;;5.37;3.07;;;;;;;14.44;100.00;102251.16;4999400;28;20201;-73
2022/05/20 00:40:21;;;;;;;6.23;2.73;;;;;;;14.32;100.00;102258.03;5001579;28;20476;-74
2022/05/20 00:42:46;;;;;;;7.17;2.63;;;;;;;13.17;100.00;102107.56;5004289;28;20499;-74
2022/05/20 00:45:12;;;;;;;6.10;2.80;;;;;;;13.00;100.00;102085.34;5007936;28;20445;-74
2022/05/20 00:47:38;;;;;;;7.17;2.90;;;;;;;13.31;100.00;102117.53;5007781;28;20311;-74
2022/05/20 00:50:11;;;;;;;2.90;2.27;;;;;;;14.39;100.00;102251.72;5006913;28;20463;-73
2022/05/20 00:52:40;;;;;;;5.47;3.17;;;;;;;13.98;100.00;102254.94;5003446;28;20390;-74
2022/05/20 00:55:11;;;;;;;4.70;2.43;;;;;;;13.82;100.00;102186.84;5006717;28;20451;-73
2022/05/20 00:57:42;;;;;;;3.37;2.20;;;;;;;13.36;100.00;102157.38;5003719;28;20452;-74
2022/05/20 01:00:13;;;;;;;3.90;2.77;;;;;;;13.23;100.00;102123.81;5005872;28;20452;-73
2022/05/20 01:02:39;;;;;;;3.70;2.50;;;;;;;13.15;100.00;102139.22;5004778;28;20459;-76
2022/05/20 01:05:15;;;;;;;6.63;2.93;;;;;;;13.89;100.00;102257.91;5005440;28;20489;-74
2022/05/20 01:07:41;;;;;;;8.53;2.93;;;;;;;13.74;100.00;102226.41;5020458;28;20577;-73
2022/05/20 01:10:07;;;;;;;5.40;2.50;;;;;;;13.23;100.00;102169.63;5007247;28;20550;-73
2022/05/20 01:12:32;;;;;;;3.77;3.03;;;;;;;13.15;100.00;102120.38;5005645;28;20499;-73
2022/05/20 01:14:58;;;;;;;7.30;2.80;;;;;;;13.24;100.00;102179.38;5006083;28;20472;-74
2022/05/20 01:17:23;;;;;;;5.57;2.97;;;;;;;13.02;100.00;102150.66;5000375;28;20192;-73
2022/05/20 01:19:53;;;;;;;5.03;2.80;;;;;;;13.52;100.00;102257.78;5004719;28;20861;-74
2022/05/20 01:22:46;;;;;;;8.63;3.30;;;;;;;12.99;100.00;102156.38;5006129;28;20265;-74
2022/05/20 01:25:12;;;;;;;8.03;2.93;;;;;;;13.26;100.00;102171.16;5005622;28;20475;-72
2022/05/20 01:27:42;;;;;;;3.80;2.57;;;;;;;13.16;100.00;102190.22;5004077;28;20522;-73
2022/05/20 01:30:10;;;;;;;6.27;3.03;;;;;;;13.61;100.00;102269.31;5004943;28;20672;-74
2022/05/20 01:32:35;;;;;;;3.90;2.80;;;;;;;13.11;100.00;102179.19;5004813;28;20554;-75
2022/05/20 01:35:02;;;;;;;5.67;3.27;;;;;;;13.16;100.00;102248.66;5006862;28;20443;-74
2022/05/20 01:37:27;;;;;;;4.23;2.80;;;;;;;12.50;100.00;102154.94;5004253;28;20538;-74
2022/05/20 01:39:53;;;;;;;3.83;3.17;;;;;;;12.28;100.00;102118.09;5003128;28;20456;-74
2022/05/20 01:42:30;;;;;;;3.57;2.67;;;;;;;12.70;100.00;102202.91;5005181;28;20684;-75
2022/05/20 01:45:01;;;;;;;4.87;2.93;;;;;;;12.47;100.00;102174.16;5003529;28;20668;-74
2022/05/20 01:47:37;;;;;;;5.73;2.77;;;;;;;12.25;100.00;102131.91;5006835;28;20845;-74
2022/05/20 01:50:27;;;;;;;4.57;2.93;;;;;;;13.38;100.00;102279.31;5005323;28;20464;-74
2022/05/20 01:53:07;;;;;;;4.63;2.60;;;;;;;12.71;100.00;102229.66;5006697;28;20503;-74
2022/05/20 01:55:41;;;;;;;7.20;3.23;;;;;;;13.29;100.00;102284.78;5004028;28;20444;-74
2022/05/20 01:58:15;;;;;;;7.33;2.90;;;;;;;12.83;100.00;102257.84;5004640;28;20450;-74
2022/05/20 02:00:45;;;;;;;4.47;3.40;;;;;;;12.65;100.00;102235.75;5003035;28;20451;-74
2022/05/20 02:03:16;;;;;;;5.80;3.67;;;;;;;13.01;100.00;102305.16;5004944;28;20613;-73
2022/05/20 02:05:54;;;;;;;7.77;3.83;;;;;;;12.91;100.00;102296.50;5002452;28;20455;-74
2022/05/20 02:08:26;;;;;;;6.07;3.30;;;;;;;12.75;100.00;102302.81;5004222;28;20446;-74
2022/05/20 02:10:56;;;;;;;5.23;3.73;;;;;;;12.36;100.00;102256.09;5004635;28;20460;-74
2022/05/20 02:13:27;;;;;;;9.10;4.20;;;;;;;12.30;100.00;102232.59;5004710;28;20536;-75
2022/05/20 02:16:02;;;;;;;8.70;3.90;;;;;;;13.11;100.00;102289.63;5003500;28;20446;-75
2022/05/20 02:18:34;;;;;;;7.03;3.57;;;;;;;12.81;100.00;102237.47;5003873;28;20971;-74
2022/05/20 02:21:06;;;;;;;6.00;4.70;;;;;;;12.40;100.00;102210.84;5004060;28;20439;-74
2022/05/20 02:23:38;;;;;;;6.00;3.40;;;;;;;12.39;100.00;102231.53;5003309;28;20475;-75
2022/05/20 02:26:15;;;;;;;7.57;3.90;;;;;;;13.00;100.00;102277.41;5004633;28;20880;-75
2022/05/20 02:28:44;;;;;;;5.63;3.87;;;;;;;12.72;100.00;102260.94;4998484;28;20439;-74
2022/05/20 02:31:15;;;;;;;7.23;4.77;;;;;;;12.70;100.00;102243.28;5002400;28;20479;-74
2022/05/20 02:33:40;;;;;;;5.77;3.80;;;;;;;12.63;100.00;102210.84;5003085;28;20450;-74
2022/05/20 02:36:15;;;;;;;8.13;5.43;;;;;;;12.51;100.00;102199.66;5004918;28;20444;-74
2022/05/20 02:38:41;;;;;;;10.50;5.87;;;;;;;12.82;100.00;102282.25;5005151;28;20182;-75
2022/05/20 02:41:08;;;;;;;11.20;5.40;;;;;;;12.21;100.00;102201.38;5001724;28;20479;-74
2022/05/20 02:43:33;;;;;;;7.83;4.30;;;;;;;12.74;100.00;102228.47;5003913;28;20223;-74
2022/05/20 02:45:59;;;;;;;5.90;4.43;;;;;;;12.25;100.00;102169.56;5003918;28;20487;-75
2022/05/20 02:48:25;;;;;;;7.37;4.40;;;;;;;12.00;100.00;102137.41;5002983;28;20188;-74
2022/05/20 02:50:50;;;;;;;7.87;5.13;;;;;;;12.40;100.00;102241.28;5002616;28;20472;-74
2022/05/20 02:53:16;;;;;;;9.67;4.87;;;;;;;12.65;100.00;102212.34;5005633;28;20692;-74
2022/05/20 02:55:42;;;;;;;7.40;4.97;;;;;;;11.94;100.00;102143.50;5003439;28;20187;-74
2022/05/20 02:58:07;;;;;;;8.43;5.00;;;;;;;12.94;100.00;102255.75;5001452;28;20443;-74
2022/05/20 03:06:01;;;;;;;6.67;4.73;;;;;;;12.61;100.00;102216.44;5003523;28;21118;-74
2022/05/20 03:08:26;;;;;;;6.70;5.00;;;;;;;12.66;100.00;102240.94;5006929;28;20440;-74
2022/05/20 03:10:51;;;;;;;7.23;4.73;;;;;;;12.70;100.00;102240.59;4998857;28;20220;-74
2022/05/20 03:13:17;;;;;;;8.77;4.90;;;;;;;12.05;100.00;102188.00;5005139;28;20213;-74
2022/05/20 03:15:44;;;;;;;5.87;5.27;;;;;;;12.47;100.00;102210.97;5004357;28;20199;-75
2022/05/20 03:18:12;;;;;;;10.57;5.00;;;;;;;12.89;100.00;102257.09;5006337;28;20498;-75
2022/05/20 03:20:38;;;;;;;7.20;5.10;;;;;;;12.83;100.00;102249.75;5006306;28;20435;-75
2022/05/20 03:23:05;;;;;;;9.07;5.43;;;;;;;12.82;100.00;102240.00;5006692;23;20536;-83
2022/05/20 03:25:30;;;;;;;7.33;5.60;;;;;;;12.64;100.00;102215.22;4983019;28;20805;-84
2022/05/20 03:27:56;;;;;;;8.20;5.90;;;;;;;12.85;100.00;102249.59;4981365;28;20516;-85
2022/05/20 03:30:21;;;;;;;9.70;5.43;;;;;;;12.80;100.00;102233.97;4981851;28;20240;-84
2022/05/20 03:32:47;;;;;;;9.13;6.00;;;;;;;12.73;100.00;102211.47;4975039;28;20666;-84
2022/05/20 03:35:13;;;;;;;7.63;5.00;;;;;;;12.81;100.00;102246.38;4969945;28;20189;-83
2022/05/20 03:37:38;;;;;;;7.47;5.00;;;;;;;12.38;100.00;102159.91;4973869;28;20272;-84
2022/05/20 03:40:05;;;;;;;6.10;4.70;;;;;;;12.86;100.00;102256.63;4972110;28;20483;-85
2022/05/20 03:42:31;;;;;;;7.67;5.60;;;;;;;12.56;100.00;102239.53;4974122;28;20210;-84
2022/05/20 03:44:56;;;;;;;8.60;5.40;;;;;;;12.45;100.00;102186.94;4974718;28;20448;-84
2022/05/20 03:47:22;;;;;;;6.00;5.37;;;;;;;12.59;100.00;102196.94;4972885;28;20196;-85
2022/05/20 03:49:47;;;;;;;6.40;5.20;;;;;;;13.09;100.00;102253.94;4970203;28;20316;-85
2022/05/20 03:52:14;;;;;;;5.83;5.23;;;;;;;12.61;100.00;102229.03;4989162;28;20232;-84
2022/05/20 03:54:40;;;;;;;10.40;5.70;;;;;;;12.79;100.00;102275.38;4972675;28;20270;-84
2022/05/20 03:57:06;;;;;;;9.10;6.07;;;;;;;12.62;100.00;102274.63;4973719;28;20541;-84
2022/05/20 03:59:36;;;;;;;7.30;5.60;;;;;;;12.91;100.00;102283.03;4967587;28;20487;-84
2022/05/20 04:02:05;;;;;;;8.60;6.10;;;;;;;12.88;100.00;102284.22;4969651;28;21016;-85
2022/05/20 04:04:39;;;;;;;8.87;6.43;;;;;;;12.91;100.00;102285.72;4959362;28;20441;-85
2022/05/20 04:07:25;;;;;;;13.10;8.23;;;;;;;12.62;100.00;102253.09;4988402;28;20509;-84
2022/05/20 04:09:51;;;;;;;10.17;7.60;;;;;;;12.87;100.00;102275.31;4965836;28;21048;-85
2022/05/20 04:12:34;;;;;;;7.70;6.90;;;;;;;12.95;100.00;102277.09;4972015;28;20469;-85
2022/05/20 04:15:01;;;;;;;9.77;6.77;;;;;;;13.00;100.00;102271.19;4972242;28;20645;-86
2022/05/20 04:17:27;;;;;;;9.23;7.53;;;;;;;12.98;100.00;102248.97;4971291;28;21097;-86
2022/05/20 04:19:53;;;;;;;8.53;7.40;;;;;;;12.27;100.00;102156.78;4973308;28;20559;-86
2022/05/20 04:22:24;;;;;;;7.83;6.50;;;;;;;12.01;100.00;102133.75;4969476;28;20586;-85
2022/05/20 04:24:50;;;;;;;10.70;7.50;;;;;;;12.88;100.00;102311.16;4987707;28;20198;-84
2022/05/20 04:27:16;;;;;;;10.87;8.20;;;;;;;12.60;100.00;102216.59;4989018;28;20857;-84
2022/05/20 04:29:41;;;;;;;10.13;8.93;;;;;;;12.49;100.00;102252.00;4970361;28;20730;-83
2022/05/20 04:32:07;;;;;;;10.33;8.43;;;;;;;12.95;100.00;102297.81;4966993;28;20464;-84
2022/05/20 04:34:32;;;;;;;9.93;8.73;;;;;;;12.49;100.00;102200.88;4972050;28;20198;-85
2022/05/20 04:36:58;;;;;;;10.93;8.37;;;;;;;12.55;100.00;102176.75;4955546;28;20225;-85
2022/05/20 04:39:24;;;;;;;12.63;7.90;;;;;;;12.52;100.00;102230.94;4968222;28;20182;-85
2022/05/20 04:47:25;;;;;;;9.70;8.70;;;;;;;12.86;100.00;102230.53;4969262;28;20451;-85
2022/05/20 04:49:51;;;;;;;11.13;8.33;;;;;;;13.19;100.00;102276.09;4973032;28;20856;-84
2022/05/20 04:52:16;;;;;;;12.20;9.10;;;;;;;13.18;100.00;102304.03;4973819;28;20479;-85
2022/05/20 04:54:51;;;;;;;10.70;8.83;;;;;;;13.14;100.00;102289.25;4969946;28;20193;-83
2022/05/20 04:57:33;;;;;;;14.70;8.97;;;;;;;13.49;100.00;102332.81;4973552;28;20225;-85
2022/05/20 05:00:00;;;;;;;9.50;8.13;;;;;;;13.30;100.00;102343.03;4987481;28;20441;-84
2022/05/20 05:02:26;;;;;;;11.10;8.20;;;;;;;13.15;100.00;102355.59;4973727;28;20479;-85
2022/05/20 05:04:52;;;;;;;11.47;8.00;;;;;;;12.95;100.00;102260.09;4973205;28;21001;-84
2022/05/20 05:07:18;;;;;;;10.17;7.70;;;;;;;13.17;100.00;102348.16;4975798;28;20441;-83
2022/05/20 05:09:44;;;;;;;11.23;7.83;;;;;;;13.26;100.00;102343.59;4973938;28;20477;-83
2022/05/20 05:12:11;;;;;;;8.63;7.33;;;;;;;13.45;100.00;102320.69;4971409;28;20747;-84
2022/05/20 05:14:39;;;;;;;10.00;7.60;;;;;;;13.39;100.00;102337.59;4971080;28;20440;-83
2022/05/20 05:17:09;;;;;;;8.57;6.37;;;;;;;13.24;100.00;102278.22;4968251;28;20444;-83
2022/05/20 05:19:36;;;;;;;8.20;6.33;;;;;;;13.57;100.00;102332.72;4973036;28;20547;-84
2022/05/20 05:22:03;;;;;;;10.50;7.47;;;;;;;13.34;100.00;102333.59;4971466;28;20480;-84
2022/05/20 05:24:28;;;;;;;8.90;7.20;;;;;;;13.05;100.00;102342.34;4973692;28;20532;-83
2022/05/20 05:26:54;;;;;;;9.13;7.13;;;;;;;12.57;100.00;102176.59;4970420;28;21013;-83
2022/05/20 05:29:19;;;;;;;9.63;7.67;;;;;;;12.68;100.00;102186.94;4969637;28;20194;-83
2022/05/20 05:31:44;;;;;;;11.10;7.03;;;;;;;12.72;100.00;102169.41;4967168;28;20214;-84
2022/05/20 05:34:10;;;;;;;7.90;6.43;;;;;;;13.10;100.00;102210.66;4973533;28;20736;-83
2022/05/20 05:36:36;;;;;;;11.43;6.87;;;;;;;13.68;100.00;102281.06;4975679;28;20194;-84
2022/05/20 05:39:02;;;;;;;8.97;5.97;;;;;;;13.48;100.00;102218.75;4976443;28;20212;-84
2022/05/20 05:41:27;;;;;;;11.37;7.03;;;;;;;13.77;100.00;102257.56;4975999;28;20438;-83
2022/05/20 05:43:53;;;;;;;15.27;7.30;;;;;;;13.40;100.00;102236.88;4977756;28;20828;-83
2022/05/20 05:46:19;;;;;;;11.43;6.30;;;;;;;13.95;100.00;102316.53;4968369;28;20194;-83
2022/05/20 05:48:45;;;;;;;10.40;5.53;;;;;;;13.59;100.00;102287.53;4977934;28;20442;-83
2022/05/20 05:51:11;;;;;;;11.30;4.50;;;;;;;13.37;100.00;102239.94;4969921;28;20480;-82
2022/05/20 05:53:37;;;;;;;11.10;5.53;;;;;;;14.29;100.00;102326.75;4971211;28;20213;-83
2022/05/20 05:56:05;;;;;;;11.20;4.63;;;;;;;14.21;100.00;102275.56;4969784;28;20293;-84
2022/05/20 05:58:31;;;;;;;5.77;4.90;;;;;;;13.90;100.00;102216.44;4973422;28;20972;-83
2022/05/20 06:00:57;;;;;;;8.03;4.27;;;;;;;14.28;100.00;102305.34;4972702;28;20473;-84
2022/05/20 06:03:23;;;;;;;11.80;4.20;;;;;;;13.78;100.00;102218.75;4973007;28;20516;-84
2022/05/20 06:05:49;;;;;;;11.70;3.60;;;;;;;13.78;100.00;102178.31;4973673;28;20325;-83
2022/05/20 06:08:16;;;;;;;4.60;3.40;;;;;;;14.42;100.00;102291.81;4968969;28;20453;-83
2022/05/20 06:10:43;;;;;;;8.03;3.50;;;;;;;14.57;100.00;102285.59;4973067;28;20194;-83
2022/05/20 06:13:09;;;;;;;6.07;3.30;;;;;;;14.59;100.00;102257.38;4973096;28;20556;-84
2022/05/20 06:15:36;;;;;;;8.70;3.83;;;;;;;14.81;100.00;102290.66;4974864;28;20430;-83
2022/05/20 06:18:02;;;;;;;8.20;4.23;;;;;;;14.57;100.00;102282.88;4978709;28;20431;-84
2022/05/20 06:20:27;;;;;;;6.40;3.13;;;;;;;14.56;100.00;102273.13;4975558;28;20438;-83
2022/05/20 06:22:53;;;;;;;5.50;2.80;;;;;;;14.81;100.00;102277.16;4975254;28;20222;-83
2022/05/20 06:25:19;;;;;;;6.10;3.20;;;;;;;14.44;100.00;102241.19;4975955;28;20198;-84
2022/05/20 06:27:45;;;;;;;5.67;3.20;;;;;;;14.53;100.00;102257.31;4974934;28;20197;-85
2022/05/20 06:30:15;;;;;;;9.20;3.60;;;;;;;14.43;100.00;102281.84;4973704;28;20518;-84
2022/05/20 06:32:41;;;;;;;7.50;3.00;;;;;;;14.12;100.00;102193.91;4972463;28;20832;-84
2022/05/20 06:40:41;;;;;;;4.67;2.70;;;;;;;14.72;100.00;102282.84;4969466;28;20475;-83
2022/05/20 06:43:07;;;;;;;7.10;3.10;;;;;;;14.31;100.00;102243.72;4985191;28;21071;-84
2022/05/20 06:45:32;;;;;;;7.40;2.87;;;;;;;14.83;100.00;102275.06;4966972;28;20477;-83
2022/05/20 06:47:58;;;;;;;5.90;2.77;;;;;;;14.54;100.00;102267.91;4970512;28;20189;-82
2022/05/20 06:50:24;;;;;;;5.30;2.80;;;;;;;14.77;100.00;102273.13;4985799;28;20207;-84
2022/05/20 06:52:49;;;;;;;3.80;2.50;;;;;;;14.29;100.00;102188.25;4967094;28;20297;-83
2022/05/20 06:55:14;;;;;;;8.83;2.77;;;;;;;14.86;100.00;102244.97;4968240;28;20185;-83
2022/05/20 06:57:40;;;;;;;7.47;2.90;;;;;;;14.76;100.00;102186.91;4971080;28;20267;-84
2022/05/20 07:00:10;;;;;;;4.93;2.23;;;;;;;14.43;100.00;102154.97;4969809;28;20193;-83
2022/05/20 07:02:36;;;;;;;2.87;1.70;;;;;;;14.91;100.00;102228.19;4971437;28;20209;-83
2022/05/20 07:05:03;;;;;;;3.90;1.87;;;;;;;14.01;100.00;102133.16;4983882;28;20488;-83
2022/05/20 07:07:29;;;;;;;7.83;3.00;;;;;;;14.62;100.00;102213.78;4970216;28;20457;-84
2022/05/20 07:09:54;;;;;;;6.60;2.97;;;;;;;13.99;100.00;102182.94;4970426;28;20478;-85
2022/05/20 07:12:20;;;;;;;3.13;1.90;;;;;;;13.56;100.00;102080.34;4964824;28;20557;-84
2022/05/20 07:14:45;;;;;;;11.77;4.50;;;;;;;14.06;100.00;102231.56;4962683;28;20181;-85
2022/05/20 07:17:20;;;;;;;8.10;4.30;;;;;;;13.83;100.00;102119.25;4968659;28;20560;-84
2022/05/20 07:19:46;;;;;;;11.23;4.10;;;;;;;13.65;100.00;102159.25;4986626;28;20213;-85
2022/05/20 07:22:11;;;;;;;7.03;4.47;;;;;;;14.19;100.00;102134.59;4969069;28;20567;-83
2022/05/20 07:24:38;;;;;;;9.10;5.47;;;;;;;14.44;100.00;102170.16;4969776;28;20245;-82
2022/05/20 07:27:04;;;;;;;9.23;5.53;;;;;;;13.62;100.00;102105.69;4972279;28;20201;-83
2022/05/20 07:29:29;;;;;;;8.87;5.50;;;;;;;13.59;100.00;102147.34;4964393;28;20453;-84
2022/05/20 07:31:55;;;;;;;7.37;5.60;;;;;;;14.01;100.00;102211.38;4984006;28;20465;-84
2022/05/20 07:34:20;;;;;;;5.90;4.53;;;;;;;14.56;100.00;102201.06;4971000;28;20251;-83
2022/05/20 07:36:45;;;;;;;6.87;4.47;;;;;;;13.82;100.00;102089.78;4969771;28;20190;-84
2022/05/20 07:39:11;;;;;;;10.40;4.33;;;;;;;14.34;100.00;102170.47;4969698;28;20216;-84
2022/05/20 07:41:36;;;;;;;7.43;4.33;;;;;;;14.39;100.00;102222.00;4971717;28;20206;-85
2022/05/20 07:44:03;;;;;;;6.23;4.00;;;;;;;13.65;100.00;102071.09;4971248;28;20658;-84
2022/05/20 07:46:29;;;;;;;6.30;3.17;;;;;;;13.70;100.00;102094.81;4970435;28;20198;-84
2022/05/20 07:48:54;;;;;;;7.10;3.20;;;;;;;13.92;100.00;102082.22;4968328;28;20449;-85
2022/05/20 07:51:23;;;;;;;4.93;3.07;;;;;;;14.37;100.00;102147.66;4969596;28;20670;-83
2022/05/20 07:54:02;;;;;;;8.30;3.40;;;;;;;14.45;100.00;102132.16;4974898;28;20216;-84
2022/05/20 07:56:35;;;;;;;8.03;3.53;;;;;;;12.99;100.00;101982.16;4969177;28;21248;-84
2022/05/20 07:59:16;;;;;;;7.20;2.63;;;;;;;14.82;100.00;102200.47;4972775;28;20520;-84
2022/05/20 08:01:45;;;;;;;7.37;3.90;;;;;;;14.34;100.00;102100.28;4971659;28;20551;-85
2022/05/20 08:07:01;;;;;;;8.73;3.30;;;;;;;15.28;100.00;102196.50;4968538;28;20999;-84
2022/05/20 08:09:27;;;;;;;6.07;2.30;;;;;;;14.54;100.00;102051.06;4957720;28;20444;-84
2022/05/20 08:11:52;;;;;;;3.10;2.37;;;;;;;14.64;100.00;102078.59;4970645;28;20468;-83
2022/05/20 08:14:18;;;;;;;5.90;3.40;;;;;;;14.39;100.00;102070.03;4967083;28;20730;-84
2022/05/20 08:16:43;;;;;;;5.77;3.30;;;;;;;14.01;100.00;102051.41;4966444;28;20200;-83
2022/05/20 08:19:09;;;;;;;7.53;3.10;;;;;;;15.34;100.00;102184.88;4970038;28;20305;-83
2022/05/20 08:21:34;;;;;;;8.50;3.40;;;;;;;15.02;100.00;102122.28;4969835;28;20701;-83
2022/05/20 08:24:00;;;;;;;5.60;2.70;;;;;;;15.60;100.00;102187.75;4963256;28;20190;-83
2022/05/20 08:26:25;;;;;;;6.70;3.17;;;;;;;14.54;100.00;102105.06;4966138;28;20178;-81
2022/05/20 08:28:51;;;;;;;5.63;3.20;;;;;;;15.41;100.00;102172.22;4966137;28;20183;-82
2022/05/20 08:31:17;;;;;;;6.30;3.40;;;;;;;15.50;100.00;102138.59;4964869;28;20298;-84
2022/05/20 08:33:43;;;;;;;6.00;3.47;;;;;;;15.07;100.00;102122.53;4955957;28;20216;-82
2022/05/20 08:36:08;;;;;;;8.10;3.50;;;;;;;15.00;100.00;102083.81;4967403;28;20229;-83
2022/05/20 08:38:34;;;;;;;6.10;2.87;;;;;;;15.28;100.00;102164.06;4961229;28;20446;-82
2022/05/20 08:41:00;;;;;;;6.13;3.23;;;;;;;15.30;100.00;102152.00;4967997;28;20229;-84
2022/05/20 08:43:29;;;;;;;5.90;2.97;;;;;;;15.29;100.00;102163.00;4960528;28;20709;-83
2022/05/20 08:45:55;;;;;;;4.77;2.53;;;;;;;14.65;100.00;102097.28;4963353;28;20937;-80
2022/05/20 08:48:20;;;;;;;4.30;2.60;;;;;;;15.55;100.00;102146.13;4962522;28;20468;-82
2022/05/20 08:50:51;;;;;;;5.00;2.30;;;;;;;14.74;100.00;102065.56;4967350;28;20259;-82
2022/05/20 08:53:21;;;;;;;3.30;2.30;;;;;;;14.94;100.00;102041.38;4964220;28;20682;-82
2022/05/20 08:55:47;;;;;;;7.27;2.70;;;;;;;15.47;100.00;102148.97;4966821;28;20441;-83
2022/05/20 08:58:19;;;;;;;7.43;2.40;;;;;;;15.98;100.00;102146.75;4962230;28;20522;-83
2022/05/20 09:00:45;;;;;;;7.13;2.10;;;;;;;16.09;100.00;102133.69;4963618;28;20179;-83
2022/05/20 09:03:11;;;;;;;5.53;1.87;;;;;;;16.48;100.00;102135.63;4961177;28;20527;-83
2022/05/20 09:05:38;;;;;;;3.33;1.63;;;;;;;16.12;100.00;102015.00;4966367;28;20690;-83
2022/05/20 09:08:19;;;;;;;2.73;2.10;;;;;;;15.35;100.00;102017.06;4972650;28;20483;-81
2022/05/20 09:10:49;;;;;;;7.17;2.30;;;;;;;15.51;100.00;102053.75;4973604;28;20870;-81
2022/05/20 09:16:18;;;;;;;4.33;2.10;;;;;;;16.27;100.00;102096.84;4965228;28;20974;-82
2022/05/20 09:18:48;;;;;;;6.77;2.70;;;;;;;16.21;100.00;102048.94;4962786;28;20438;-83
2022/05/20 09:21:35;;;;;;;3.80;2.03;;;;;;;16.25;100.00;101997.94;4964571;28;20449;-82
2022/05/20 09:24:07;;;;;;;5.93;2.47;;;;;;;16.32;100.00;102085.41;5008917;23;20954;-73
2022/05/20 09:26:37;;;;;;;4.30;1.83;;;;;;;16.46;100.00;102081.69;4997276;28;20794;-73
2022/05/20 09:29:14;;;;;;;7.20;2.73;;;;;;;15.88;100.00;102011.03;5000962;28;20534;-73
2022/05/20 09:31:48;;;;;;;2.90;2.10;;;;;;;16.14;100.00;102056.25;5003034;28;20479;-73
2022/05/20 09:34:20;;;;;;;3.53;1.83;;;;;;;16.77;100.00;102058.56;4984940;28;20477;-73
2022/05/20 09:37:00;;;;;;;3.30;1.97;;;;;;;16.76;100.00;102015.41;4987250;28;20468;-74
2022/05/20 09:39:41;;;;;;;7.27;2.13;;;;;;;16.90;100.00;102063.97;4986893;28;20449;-74
2022/05/20 09:42:18;;;;;;;8.30;2.43;;;;;;;16.92;100.00;102010.41;4984225;28;20525;-74
2022/05/20 09:44:50;;;;;;;4.50;1.90;;;;;;;17.27;100.00;102029.06;4982913;28;20441;-73
2022/05/20 09:47:18;;;;;;;3.43;2.27;;;;;;;16.61;100.00;102051.69;4986197;28;20451;-73
2022/05/20 09:49:52;;;;;;;5.70;2.73;;;;;;;16.58;100.00;102048.56;4989050;28;20448;-73
2022/05/20 09:52:39;;;;;;;5.13;2.07;;;;;;;17.02;100.00;102047.88;4994011;28;20863;-73
2022/05/20 09:55:15;;;;;;;3.53;1.50;;;;;;;17.25;100.00;102028.44;4988445;28;20440;-74
2022/05/20 09:57:45;;;;;;;4.10;2.20;;;;;;;16.68;100.00;102005.59;4989437;28;20440;-74
2022/05/20 10:00:20;;;;;;;4.90;2.07;;;;;;;17.24;100.00;102039.47;4992951;28;20867;-74
2022/05/20 10:02:54;;;;;;;4.63;2.00;;;;;;;17.56;100.00;102034.94;4994590;28;20467;-74
2022/05/20 10:05:53;;;;;;;2.67;1.70;;;;;;;17.81;100.00;102022.31;4990177;28;20449;-74
2022/05/20 10:08:22;;;;;;;4.07;2.40;;;;;;;17.50;100.00;102022.25;4994043;28;20432;-74
2022/05/20 10:10:59;;;;;;;2.73;1.47;;;;;;;18.00;100.00;101998.00;4991486;28;20476;-74
2022/05/20 10:13:43;;;;;;;3.93;2.30;;;;;;;17.98;100.00;102000.09;4990532;28;20463;-73
2022/05/20 10:16:21;;;;;;;2.83;1.60;;;;;;;17.99;100.00;102007.19;4994026;28;21131;-74
2022/05/20 10:19:07;;;;;;;4.93;2.37;;;;;;;17.57;100.00;101999.47;4991447;28;20433;-74
2022/05/20 10:21:54;;;;;;;4.80;2.27;;;;;;;18.10;100.00;101990.19;4992744;28;20445;-74
2022/05/20 10:24:31;;;;;;;4.20;2.30;;;;;;;18.22;100.00;101966.69;4981897;28;20544;-74
2022/05/20 10:27:04;;;;;;;9.80;3.20;;;;;;;17.66;100.00;101956.66;4977973;28;20444;-74
2022/05/20 10:32:49;;;;;;;6.00;2.37;;;;;;;18.01;100.00;101927.19;4985019;28;20471;-74
2022/05/20 10:35:18;;;;;;;6.53;3.03;;;;;;;17.81;100.00;101957.19;4977802;28;20456;-74
2022/05/20 10:38:18;;;;;;;5.17;2.80;;;;;;;18.41;100.00;101945.00;4978260;28;22067;-76
2022/05/20 10:40:53;;;;;;;8.80;2.90;;;;;;;18.23;100.00;101951.25;4977544;28;20448;-75
2022/05/20 10:48:34;;;;;;;4.73;2.73;;;;;;;17.71;100.00;101905.28;4981157;28;20470;-75
2022/05/20 10:49:06;;;;;;;4.80;2.70;;;;;;;18.00;100.00;101922.00;4977189;28;20596;-75
2022/05/20 10:51:54;;;;;;;2.40;2.20;;;;;;;18.03;100.00;101892.50;4977015;28;20949;-75
2022/05/20 10:54:41;;;;;;;3.57;2.00;;;;;;;18.17;100.00;101914.13;4985268;28;20221;-75
2022/05/20 10:57:25;;;;;;;3.00;2.00;;;;;;;18.43;100.00;101894.00;4984184;28;20443;-75
2022/05/20 11:00:01;;;;;;;2.67;2.00;;;;;;;18.71;100.00;101918.75;4979677;28;20542;-75
2022/05/20 11:03:04;;;;;;;5.23;2.00;;;;;;;18.76;100.00;101904.53;4965872;28;20472;-75
2022/05/20 11:05:44;;;;;;;4.63;2.77;;;;;;;18.69;100.00;101910.00;4967518;28;20478;-75
2022/05/20 11:08:56;;;;;;;2.27;2.07;;;;;;;18.82;100.00;101898.16;4974535;28;20444;-75
2022/05/20 11:11:44;;;;;;;5.03;2.30;;;;;;;18.94;100.00;101892.78;4965044;28;20484;-73
2022/05/20 11:14:19;;;;;;;6.60;2.60;;;;;;;18.71;100.00;101886.13;4984132;28;20550;-74
2022/05/20 11:16:50;;;;;;;3.33;2.40;;;;;;;18.96;100.00;101856.16;4986071;28;20436;-74
2022/05/20 11:19:57;;;;;;;5.40;3.83;;;;;;;18.19;100.00;101849.53;4990062;28;20463;-75
2022/05/20 11:23:10;;;;;;;4.00;2.20;;;;;;;18.76;100.00;101846.63;4982550;28;22342;-74
2022/05/20 11:25:46;;;;;;;4.83;2.60;;;;;;;18.96;100.00;101844.47;4944884;28;20494;-73
2022/05/20 11:28:26;;;;;;;6.27;3.13;;;;;;;19.41;100.00;101836.69;4993944;28;20451;-74
2022/05/20 11:31:17;;;;;;;5.27;2.13;;;;;;;19.42;100.00;101826.63;5002564;28;20467;-74
2022/05/20 11:33:48;;;;;;;2.90;2.40;;;;;;;19.19;100.00;101820.06;4992804;28;20464;-74
2022/05/20 11:36:44;;;;;;;2.33;1.77;;;;;;;19.51;100.00;101811.63;4988132;28;20481;-73
2022/05/20 11:39:34;;;;;;;4.87;2.57;;;;;;;19.17;100.00;101808.59;4991116;28;20844;-73
2022/05/20 11:42:11;;;;;;;3.33;1.80;;;;;;;19.46;100.00;101808.78;4987593;28;20567;-73
2022/05/20 11:45:10;;;;;;;2.13;1.60;;;;;;;19.45;100.00;101800.84;4982922;28;20444;-73
2022/05/20 11:48:07;;;;;;;2.50;1.70;;;;;;;19.55;100.00;101788.31;4985575;28;20438;-74
2022/05/20 11:50:54;;;;;;;2.83;1.50;;;;;;;19.93;100.00;101778.91;4984053;28;20480;-80
2022/05/20 11:53:31;;;;;;;3.20;1.93;;;;;;;19.96;100.00;101770.25;4979282;28;20468;-73
2022/05/20 11:56:07;;;;;;;3.00;1.80;;;;;;;19.86;100.00;101767.28;4988512;28;20444;-74
2022/05/20 11:58:42;;;;;;;11.00;2.10;;;;;;;20.04;100.00;101764.41;4985486;28;20437;-74
2022/05/20 12:01:09;;;;;;;3.47;1.90;;;;;;;20.14;100.00;101752.09;4986694;28;20451;-73
2022/05/20 12:06:23;;;;;;;3.60;2.07;;;;;;;20.29;100.00;101734.16;4984903;28;20557;-77